createdAt,value
2018-09-27T00:00:13.685Z,85.5
2018-09-27T00:01:15.088Z,85.4
2018-09-27T00:02:16.460Z,85.3
2018-09-27T00:03:17.844Z,85.5
2018-09-27T00:04:19.237Z,85.0
2018-09-27T00:05:20.622Z,85.3
2018-09-27T00:06:22.021Z,85.4
2018-09-27T00:07:23.404Z,85.1
2018-09-27T00:08:24.794Z,85.8
2018-09-27T00:09:26.180Z,85.5
2018-09-27T00:10:27.578Z,85.2
2018-09-27T00:11:28.956Z,85.2
2018-09-27T00:12:30.350Z,85.4
2018-09-27T00:13:31.735Z,85.6
2018-09-27T00:14:33.173Z,85.7
2018-09-27T00:15:34.518Z,85.7
2018-09-27T00:16:35.899Z,85.5
2018-09-27T00:17:37.289Z,86.0
2018-09-27T00:18:38.679Z,86.3
2018-09-27T00:19:40.146Z,86.7
2018-09-27T00:20:41.485Z,86.3
2018-09-27T00:21:42.877Z,86.3
2018-09-27T00:22:44.261Z,86.4
2018-09-27T00:23:45.648Z,86.3
2018-09-27T00:24:47.042Z,86.7
2018-09-27T00:25:48.426Z,86.8
2018-09-27T00:26:49.834Z,87.0
2018-09-27T00:27:51.221Z,86.6
2018-09-27T00:28:52.611Z,86.8
2018-09-27T00:29:54.024Z,87.3
2018-09-27T00:30:55.413Z,87.4
2018-09-27T00:31:56.799Z,87.4
2018-09-27T00:32:58.186Z,87.3
2018-09-27T00:33:59.583Z,87.0
2018-09-27T00:35:00.959Z,87.9
2018-09-27T00:36:02.350Z,87.8
2018-09-27T00:37:03.733Z,87.9
2018-09-27T00:38:05.130Z,87.8
2018-09-27T00:39:06.511Z,88.1
2018-09-27T00:40:07.901Z,88.3
2018-09-27T00:41:09.290Z,88.7
2018-09-27T00:42:10.692Z,88.5
2018-09-27T00:43:12.070Z,88.8
2018-09-27T00:44:13.476Z,88.5
2018-09-27T00:45:14.863Z,88.5
2018-09-27T00:46:16.252Z,88.4
2018-09-27T00:47:17.661Z,88.1
2018-09-27T00:48:19.076Z,88.0
2018-09-27T00:49:20.470Z,88.1
2018-09-27T00:50:21.855Z,87.8
2018-09-27T00:51:23.244Z,87.8
2018-09-27T00:52:24.627Z,88.0
2018-09-27T00:53:26.019Z,88.1
2018-09-27T00:54:27.400Z,88.1
2018-09-27T00:55:28.802Z,88.0
2018-09-27T00:56:30.193Z,88.1
2018-09-27T00:57:31.583Z,88.4
2018-09-27T00:58:32.972Z,88.1
2018-09-27T00:59:34.355Z,87.4
2018-09-27T01:00:35.743Z,87.3
2018-09-27T01:01:37.131Z,87.2
2018-09-27T01:02:38.530Z,87.2
2018-09-27T01:03:39.923Z,86.9
2018-09-27T01:04:41.309Z,86.5
2018-09-27T01:05:42.701Z,86.6
2018-09-27T01:06:44.098Z,86.5
2018-09-27T01:07:45.490Z,85.9
2018-09-27T01:08:46.880Z,86.1
2018-09-27T01:09:48.266Z,86.2
2018-09-27T01:10:49.656Z,86.0
2018-09-27T01:11:51.049Z,85.7
2018-09-27T01:12:52.439Z,85.5
2018-09-27T01:13:53.863Z,85.8
2018-09-27T01:14:55.256Z,85.6
2018-09-27T01:15:56.643Z,85.7
2018-09-27T01:16:58.033Z,85.4
2018-09-27T01:17:59.419Z,85.6
2018-09-27T01:19:00.837Z,85.8
2018-09-27T01:20:02.241Z,85.8
2018-09-27T01:21:03.618Z,85.4
2018-09-27T01:22:05.012Z,85.8
2018-09-27T01:23:06.399Z,85.9
2018-09-27T01:24:07.796Z,85.2
2018-09-27T01:25:09.209Z,85.4
2018-09-27T01:26:10.604Z,85.4
2018-09-27T01:27:12.039Z,85.5
2018-09-27T01:28:13.385Z,85.3
2018-09-27T01:29:14.774Z,85.5
2018-09-27T01:30:16.160Z,85.4
2018-09-27T01:31:17.552Z,85.7
2018-09-27T01:32:18.949Z,85.9
2018-09-27T01:33:20.347Z,85.5
2018-09-27T01:34:21.732Z,85.9
2018-09-27T01:35:23.127Z,85.4
2018-09-27T01:36:24.505Z,86.0
2018-09-27T01:37:25.907Z,86.1
2018-09-27T01:38:27.370Z,86.5
2018-09-27T01:39:28.775Z,86.6
2018-09-27T01:40:30.160Z,87.4
2018-09-27T01:41:31.546Z,87.2
2018-09-27T01:42:32.938Z,88.1
2018-09-27T01:43:34.327Z,88.0
2018-09-27T01:44:35.726Z,87.9
2018-09-27T01:45:37.121Z,87.7
2018-09-27T01:46:38.501Z,88.0
2018-09-27T01:47:39.890Z,87.8
2018-09-27T01:48:41.272Z,88.0
2018-09-27T01:49:42.674Z,87.9
2018-09-27T01:50:44.049Z,88.0
2018-09-27T01:51:45.451Z,87.7
2018-09-27T01:52:46.840Z,88.3
2018-09-27T01:53:48.228Z,88.3
2018-09-27T01:54:49.617Z,88.3
2018-09-27T01:55:51.007Z,88.5
2018-09-27T01:56:52.395Z,88.4
2018-09-27T01:57:53.784Z,88.6
2018-09-27T01:58:55.208Z,88.8
2018-09-27T01:59:56.599Z,88.4
2018-09-27T02:00:58.033Z,88.4
2018-09-27T02:01:59.419Z,89.1
2018-09-27T02:03:01.641Z,89.0
2018-09-27T02:04:03.027Z,88.6
2018-09-27T02:05:04.408Z,88.8
2018-09-27T02:06:05.798Z,88.9
2018-09-27T02:07:07.192Z,88.8
2018-09-27T02:08:08.606Z,89.0
2018-09-27T02:09:10.002Z,89.2
2018-09-27T02:10:11.401Z,89.2
2018-09-27T02:11:12.787Z,88.7
2018-09-27T02:12:14.176Z,89.0
2018-09-27T02:13:15.609Z,88.9
2018-09-27T02:14:16.993Z,89.6
2018-09-27T02:15:18.383Z,89.4
2018-09-27T02:16:19.771Z,89.1
2018-09-27T02:17:21.164Z,89.5
2018-09-27T02:18:22.545Z,89.1
2018-09-27T02:19:23.928Z,88.9
2018-09-27T02:20:25.322Z,89.2
2018-09-27T02:21:26.716Z,89.3
2018-09-27T02:22:28.109Z,88.7
2018-09-27T02:23:29.499Z,89.3
2018-09-27T02:24:30.886Z,89.1
2018-09-27T02:25:32.274Z,89.8
2018-09-27T02:26:33.666Z,89.2
2018-09-27T02:27:35.173Z,89.2
2018-09-27T02:28:36.571Z,89.0
2018-09-27T02:29:37.962Z,89.5
2018-09-27T02:30:39.363Z,89.5
2018-09-27T02:31:40.762Z,89.5
2018-09-27T02:32:42.154Z,89.5
2018-09-27T02:33:43.592Z,89.6
2018-09-27T02:34:44.985Z,89.8
2018-09-27T02:35:46.364Z,89.7
2018-09-27T02:36:47.754Z,89.8
2018-09-27T02:37:49.145Z,90.1
2018-09-27T02:38:50.533Z,90.3
2018-09-27T02:39:51.916Z,90.1
2018-09-27T02:40:53.314Z,89.9
2018-09-27T02:41:54.703Z,90.0
2018-09-27T02:42:56.098Z,90.3
2018-09-27T02:43:57.486Z,90.3
2018-09-27T02:44:58.873Z,90.1
2018-09-27T02:46:00.259Z,90.1
2018-09-27T02:47:01.647Z,90.5
2018-09-27T02:48:03.031Z,89.9
2018-09-27T02:49:04.429Z,90.3
2018-09-27T02:50:05.816Z,90.1
2018-09-27T02:51:07.209Z,89.8
2018-09-27T02:52:08.597Z,90.1
2018-09-27T02:53:09.998Z,89.8
2018-09-27T02:54:11.386Z,89.6
2018-09-27T02:55:12.781Z,90.1
2018-09-27T02:56:14.175Z,90.6
2018-09-27T02:57:15.606Z,90.8
2018-09-27T02:58:17.036Z,90.6
2018-09-27T02:59:18.410Z,90.6
2018-09-27T03:00:19.801Z,90.6
2018-09-27T03:01:21.188Z,90.9
2018-09-27T03:02:22.578Z,90.7
2018-09-27T03:03:23.961Z,91.3
2018-09-27T03:04:25.357Z,91.3
2018-09-27T03:05:26.745Z,91.6
2018-09-27T03:06:28.133Z,91.1
2018-09-27T03:07:29.527Z,91.9
2018-09-27T03:08:30.911Z,91.1
2018-09-27T03:09:32.335Z,91.1
2018-09-27T03:10:33.725Z,91.2
2018-09-27T03:11:35.157Z,92.0
2018-09-27T03:12:36.543Z,91.6
2018-09-27T03:13:37.935Z,92.0
2018-09-27T03:14:39.322Z,91.8
2018-09-27T03:15:40.716Z,91.1
2018-09-27T03:16:42.103Z,91.7
2018-09-27T03:17:43.597Z,91.5
2018-09-27T03:18:45.017Z,90.8
2018-09-27T03:19:46.404Z,90.8
2018-09-27T03:20:47.867Z,90.6
2018-09-27T03:21:49.199Z,90.6
2018-09-27T03:22:50.581Z,90.6
2018-09-27T03:23:51.967Z,89.9
2018-09-27T03:24:53.356Z,90.0
2018-09-27T03:25:54.806Z,90.4
2018-09-27T03:26:56.200Z,90.8
2018-09-27T03:27:57.584Z,91.1
2018-09-27T03:28:58.971Z,91.3
2018-09-27T03:30:00.357Z,91.5
2018-09-27T03:31:01.743Z,91.2
2018-09-27T03:32:03.127Z,91.2
2018-09-27T03:33:04.517Z,91.2
2018-09-27T03:34:05.901Z,91.1
2018-09-27T03:35:07.293Z,91.5
2018-09-27T03:36:08.720Z,90.7
2018-09-27T03:37:10.103Z,91.2
2018-09-27T03:38:11.485Z,91.2
2018-09-27T03:39:12.871Z,91.2
2018-09-27T03:40:14.339Z,91.1
2018-09-27T03:41:15.648Z,91.3
2018-09-27T03:42:17.035Z,91.2
2018-09-27T03:43:18.419Z,91.8
2018-09-27T03:44:19.811Z,91.6
2018-09-27T03:45:21.204Z,92.1
2018-09-27T03:46:22.593Z,92.2
2018-09-27T03:47:23.984Z,92.1
2018-09-27T03:48:25.376Z,91.9
2018-09-27T03:49:26.780Z,92.2
2018-09-27T03:50:28.169Z,92.3
2018-09-27T03:51:29.560Z,92.0
2018-09-27T03:52:31.016Z,92.1
2018-09-27T03:53:32.404Z,91.9
2018-09-27T03:54:33.790Z,92.8
2018-09-27T03:55:35.230Z,92.5
2018-09-27T03:56:36.611Z,93.0
2018-09-27T03:57:37.997Z,93.0
2018-09-27T03:58:39.393Z,93.2
2018-09-27T03:59:40.781Z,93.1
2018-09-27T04:00:42.167Z,92.9
2018-09-27T04:01:43.557Z,92.4
2018-09-27T04:02:44.945Z,92.5
2018-09-27T04:03:46.338Z,92.3
2018-09-27T04:04:47.720Z,92.6
2018-09-27T04:05:49.108Z,92.3
2018-09-27T04:06:50.486Z,92.6
2018-09-27T04:07:51.972Z,92.7
2018-09-27T04:08:53.404Z,92.7
2018-09-27T04:09:54.792Z,92.5
2018-09-27T04:10:56.196Z,92.5
2018-09-27T04:11:57.583Z,92.4
2018-09-27T04:12:58.968Z,92.5
2018-09-27T04:14:00.360Z,92.9
2018-09-27T04:15:01.745Z,92.6
2018-09-27T04:16:03.131Z,92.2
2018-09-27T04:17:04.517Z,92.3
2018-09-27T04:18:05.921Z,91.9
2018-09-27T04:19:07.311Z,92.1
2018-09-27T04:20:08.691Z,91.9
2018-09-27T04:21:10.085Z,91.9
2018-09-27T04:22:11.477Z,92.0
2018-09-27T04:23:12.863Z,92.0
2018-09-27T04:24:14.250Z,92.0
2018-09-27T04:25:15.642Z,91.8
2018-09-27T04:26:17.025Z,91.9
2018-09-27T04:27:18.419Z,91.7
2018-09-27T04:28:19.805Z,91.8
2018-09-27T04:29:21.199Z,91.9
2018-09-27T04:30:22.581Z,92.3
2018-09-27T04:31:23.974Z,92.4
2018-09-27T04:32:25.357Z,92.0
2018-09-27T04:33:26.747Z,91.9
2018-09-27T04:34:28.131Z,91.9
2018-09-27T04:35:29.519Z,92.0
2018-09-27T04:36:30.920Z,92.4
2018-09-27T04:37:32.313Z,92.3
2018-09-27T04:38:33.698Z,91.8
2018-09-27T04:39:35.123Z,91.8
2018-09-27T04:40:36.512Z,91.8
2018-09-27T04:41:37.893Z,92.2
2018-09-27T04:42:39.281Z,92.1
2018-09-27T04:43:40.674Z,91.9
2018-09-27T04:44:42.057Z,92.0
2018-09-27T04:45:43.462Z,91.5
2018-09-27T04:46:44.863Z,92.0
2018-09-27T04:47:46.230Z,91.9
2018-09-27T04:48:47.615Z,91.9
2018-09-27T04:49:49.000Z,91.9
2018-09-27T04:50:50.413Z,92.1
2018-09-27T04:51:51.829Z,92.0
2018-09-27T04:52:53.214Z,92.0
2018-09-27T04:53:54.598Z,92.0
2018-09-27T04:54:56.003Z,91.9
2018-09-27T04:55:57.369Z,91.7
2018-09-27T04:56:58.776Z,91.8
2018-09-27T04:58:00.152Z,91.7
2018-09-27T04:59:01.682Z,91.6
2018-09-27T05:00:03.142Z,92.1
2018-09-27T05:01:04.430Z,91.8
2018-09-27T05:02:05.814Z,92.3
2018-09-27T05:03:07.215Z,91.9
2018-09-27T05:04:08.591Z,91.8
2018-09-27T05:05:09.990Z,92.1
2018-09-27T05:06:11.388Z,92.9
2018-09-27T05:07:12.761Z,92.5
2018-09-27T05:08:14.146Z,92.5
2018-09-27T05:09:15.564Z,92.4
2018-09-27T05:10:16.948Z,92.6
2018-09-27T05:11:18.335Z,92.5
2018-09-27T05:12:19.722Z,92.4
2018-09-27T05:13:21.131Z,92.6
2018-09-27T05:14:22.539Z,92.5
2018-09-27T05:15:23.950Z,92.6
2018-09-27T05:16:25.324Z,92.5
2018-09-27T05:17:26.712Z,93.2
2018-09-27T05:18:28.118Z,93.4
2018-09-27T05:19:29.498Z,93.4
2018-09-27T05:20:30.912Z,93.1
2018-09-27T05:21:32.285Z,92.9
2018-09-27T05:22:33.680Z,92.3
2018-09-27T05:23:35.107Z,92.7
2018-09-27T05:24:36.481Z,92.4
2018-09-27T05:25:37.870Z,92.8
2018-09-27T05:26:39.249Z,92.5
2018-09-27T05:27:40.682Z,92.6
2018-09-27T05:28:42.034Z,92.6
2018-09-27T05:29:43.426Z,92.7
2018-09-27T05:30:44.807Z,92.5
2018-09-27T05:31:46.200Z,92.3
2018-09-27T05:32:47.595Z,92.7
2018-09-27T05:33:48.985Z,92.2
2018-09-27T05:34:50.374Z,92.0
2018-09-27T05:35:51.766Z,92.0
2018-09-27T05:36:53.214Z,92.0
2018-09-27T05:37:54.603Z,92.1
2018-09-27T05:38:55.994Z,92.3
2018-09-27T05:39:57.383Z,92.2
2018-09-27T05:40:58.773Z,92.4
2018-09-27T05:42:00.206Z,92.8
2018-09-27T05:43:01.593Z,92.7
2018-09-27T05:44:02.980Z,92.7
2018-09-27T05:45:04.387Z,92.3
2018-09-27T05:46:05.709Z,92.6
2018-09-27T05:47:07.096Z,92.5
2018-09-27T05:48:08.486Z,92.7
2018-09-27T05:49:09.970Z,92.7
2018-09-27T05:50:11.425Z,92.9
2018-09-27T05:51:12.816Z,92.5
2018-09-27T05:52:14.215Z,92.6
2018-09-27T05:53:15.697Z,91.9
2018-09-27T05:54:17.179Z,91.9
2018-09-27T05:55:18.571Z,92.3
2018-09-27T05:56:19.977Z,92.7
2018-09-27T05:57:21.367Z,92.2
2018-09-27T05:58:22.756Z,92.4
2018-09-27T05:59:24.144Z,92.5
2018-09-27T06:00:25.533Z,91.8
2018-09-27T06:01:26.923Z,92.1
2018-09-27T06:02:28.310Z,91.5
2018-09-27T06:03:29.724Z,92.0
2018-09-27T06:04:31.171Z,91.8
2018-09-27T06:05:32.559Z,92.0
2018-09-27T06:06:33.952Z,92.3
2018-09-27T06:07:35.430Z,92.5
2018-09-27T06:08:36.824Z,92.6
2018-09-27T06:09:38.222Z,92.4
2018-09-27T06:10:39.602Z,92.6
2018-09-27T06:11:40.993Z,92.4
2018-09-27T06:12:42.385Z,92.6
2018-09-27T06:13:44.806Z,92.5
2018-09-27T06:14:46.213Z,92.3
2018-09-27T06:15:47.602Z,92.6
2018-09-27T06:16:48.990Z,92.7
2018-09-27T06:17:50.378Z,92.6
2018-09-27T06:18:51.788Z,92.7
2018-09-27T06:19:53.240Z,92.8
2018-09-27T06:20:54.579Z,92.8
2018-09-27T06:21:56.004Z,92.8
2018-09-27T06:22:57.394Z,93.2
2018-09-27T06:23:58.788Z,93.6
2018-09-27T06:25:00.182Z,93.8
2018-09-27T06:26:01.648Z,94.1
2018-09-27T06:27:03.086Z,93.9
2018-09-27T06:28:04.476Z,93.1
2018-09-27T06:29:05.869Z,93.8
2018-09-27T06:30:07.321Z,93.7
2018-09-27T06:31:08.740Z,94.1
2018-09-27T06:32:10.130Z,93.5
2018-09-27T06:33:11.523Z,93.5
2018-09-27T06:34:12.972Z,94.0
2018-09-27T06:35:14.375Z,93.8
2018-09-27T06:36:15.742Z,94.3
2018-09-27T06:37:17.222Z,93.6
2018-09-27T06:38:18.772Z,93.3
2018-09-27T06:39:20.166Z,93.4
2018-09-27T06:40:21.563Z,93.4
2018-09-27T06:41:23.145Z,93.1
2018-09-27T06:42:24.514Z,93.3
2018-09-27T06:43:25.905Z,93.1
2018-09-27T06:44:27.490Z,93.3
2018-09-27T06:45:28.926Z,93.6
2018-09-27T06:46:30.321Z,93.2
2018-09-27T06:47:31.710Z,93.2
2018-09-27T06:48:33.208Z,93.4
2018-09-27T06:49:34.591Z,93.0
2018-09-27T06:50:36.051Z,93.6
2018-09-27T06:51:37.433Z,93.8
2018-09-27T06:52:38.828Z,93.2
2018-09-27T06:53:40.405Z,94.2
2018-09-27T06:54:41.931Z,93.7
2018-09-27T06:55:43.458Z,93.6
2018-09-27T06:56:44.859Z,94.1
2018-09-27T06:57:46.175Z,93.7
2018-09-27T06:58:47.562Z,93.8
2018-09-27T06:59:49.070Z,94.1
2018-09-27T07:00:50.583Z,93.9
2018-09-27T07:01:51.991Z,93.9
2018-09-27T07:02:53.373Z,93.8
2018-09-27T07:03:54.937Z,93.7
2018-09-27T07:04:56.370Z,93.7
2018-09-27T07:05:57.732Z,93.6
2018-09-27T07:06:59.225Z,93.9
2018-09-27T07:08:00.664Z,93.8
2018-09-27T07:09:02.053Z,93.7
2018-09-27T07:10:03.445Z,93.3
2018-09-27T07:11:04.996Z,93.1
2018-09-27T07:12:06.611Z,93.4
2018-09-27T07:13:07.976Z,93.1
2018-09-27T07:14:09.453Z,92.6
2018-09-27T07:15:10.960Z,92.6
2018-09-27T07:16:12.350Z,92.8
2018-09-27T07:17:13.739Z,92.2
2018-09-27T07:18:15.305Z,91.7
2018-09-27T07:19:16.700Z,91.6
2018-09-27T07:20:18.102Z,91.5
2018-09-27T07:21:19.533Z,90.8
2018-09-27T07:22:22.284Z,91.6
2018-09-27T07:23:23.624Z,91.6
2018-09-27T07:24:25.023Z,91.1
2018-09-27T07:25:26.487Z,91.2
2018-09-27T07:26:27.951Z,90.7
2018-09-27T07:27:29.998Z,90.2
2018-09-27T07:28:32.761Z,89.7
2018-09-27T07:29:34.202Z,89.1
2018-09-27T07:30:35.794Z,88.4
2018-09-27T07:31:37.826Z,88.1
2018-09-27T07:32:39.274Z,87.7
2018-09-27T07:33:40.678Z,86.4
2018-09-27T07:34:42.192Z,85.7
2018-09-27T07:35:43.588Z,85.8
2018-09-27T07:36:45.035Z,85.3
2018-09-27T07:37:46.372Z,84.6
2018-09-27T07:38:50.883Z,83.9
2018-09-27T07:39:52.626Z,83.1
2018-09-27T07:40:54.085Z,83.2
2018-09-27T07:41:55.523Z,82.2
2018-09-27T07:42:56.944Z,82.1
2018-09-27T07:43:58.603Z,82.1
2018-09-27T07:44:59.995Z,80.4
2018-09-27T07:46:01.393Z,79.5
2018-09-27T07:47:02.783Z,78.6
2018-09-27T07:48:04.538Z,78.1
2018-09-27T07:49:05.930Z,78.1
2018-09-27T07:50:07.336Z,78.2
2018-09-27T07:51:08.732Z,78.5
2018-09-27T07:52:10.128Z,78.2
2018-09-27T07:53:11.811Z,78.4
2018-09-27T07:54:13.246Z,78.0
2018-09-27T07:55:14.627Z,78.2
2018-09-27T07:56:16.019Z,78.8
2018-09-27T07:57:17.418Z,78.9
2018-09-27T07:58:18.823Z,78.8
2018-09-27T07:59:20.381Z,79.0
2018-09-27T08:00:21.802Z,78.6
2018-09-27T08:01:23.176Z,78.9
2018-09-27T08:02:24.599Z,78.5
2018-09-27T08:03:26.766Z,77.8
2018-09-27T08:04:28.159Z,77.4
2018-09-27T08:05:29.614Z,77.6
2018-09-27T08:06:31.084Z,77.2
2018-09-27T08:07:32.493Z,76.3
2018-09-27T08:08:33.914Z,76.3
2018-09-27T08:09:35.315Z,76.7
2018-09-27T08:10:36.705Z,76.2
2018-09-27T08:11:38.337Z,76.3
2018-09-27T08:12:39.550Z,76.3
2018-09-27T08:13:40.946Z,76.6
2018-09-27T08:14:42.415Z,75.6
2018-09-27T08:15:44.197Z,74.8
2018-09-27T08:16:45.610Z,74.7
2018-09-27T08:17:47.014Z,74.6
2018-09-27T08:18:49.770Z,74.4
2018-09-27T08:19:51.184Z,73.8
2018-09-27T08:20:52.703Z,73.8
2018-09-27T08:21:54.046Z,72.9
2018-09-27T08:22:55.550Z,72.0
2018-09-27T08:23:57.124Z,71.9
2018-09-27T08:24:58.486Z,71.8
2018-09-27T08:25:59.895Z,71.7
2018-09-27T08:27:01.374Z,71.9
2018-09-27T08:28:02.818Z,71.7
2018-09-27T08:29:04.211Z,71.4
2018-09-27T08:30:05.625Z,69.9
2018-09-27T08:31:07.153Z,70.2
2018-09-27T08:32:08.480Z,70.1
2018-09-27T08:33:09.878Z,70.3
2018-09-27T08:34:11.353Z,70.4
2018-09-27T08:35:12.727Z,69.5
2018-09-27T08:36:14.147Z,69.5
2018-09-27T08:37:15.596Z,69.0
2018-09-27T08:38:17.024Z,69.1
2018-09-27T08:39:18.394Z,69.5
2018-09-27T08:40:19.813Z,69.9
2018-09-27T08:41:21.213Z,69.1
2018-09-27T08:42:22.670Z,68.7
2018-09-27T08:43:24.105Z,67.8
2018-09-27T08:44:25.611Z,66.8
2018-09-27T08:45:27.272Z,66.1
2018-09-27T08:46:28.357Z,66.2
2018-09-27T08:47:29.759Z,66.0
2018-09-27T08:48:31.150Z,65.2
2018-09-27T08:49:32.544Z,64.8
2018-09-27T08:50:33.946Z,65.0
2018-09-27T08:51:35.446Z,64.4
2018-09-27T08:52:36.772Z,63.8
2018-09-27T08:53:38.167Z,63.2
2018-09-27T08:54:39.564Z,63.2
2018-09-27T08:55:40.997Z,62.3
2018-09-27T08:56:42.357Z,62.9
2018-09-27T08:57:43.849Z,63.1
2018-09-27T08:58:45.160Z,63.0
2018-09-27T08:59:46.554Z,62.3
2018-09-27T09:00:47.958Z,61.7
2018-09-27T09:01:49.356Z,61.0
2018-09-27T09:02:50.759Z,59.1
2018-09-27T09:03:52.182Z,58.2
2018-09-27T09:04:53.564Z,56.8
2018-09-27T09:05:54.963Z,57.0
2018-09-27T09:06:56.358Z,56.7
2018-09-27T09:07:57.810Z,57.9
2018-09-27T09:08:59.206Z,57.9
2018-09-27T09:10:00.603Z,57.4
2018-09-27T09:11:02.073Z,56.9
2018-09-27T09:12:03.478Z,57.1
2018-09-27T09:13:04.877Z,57.0
2018-09-27T09:14:06.277Z,54.0
2018-09-27T09:15:07.729Z,52.4
2018-09-27T09:16:09.142Z,52.6
2018-09-27T09:17:10.574Z,51.1
2018-09-27T09:18:12.000Z,51.2
2018-09-27T09:19:13.406Z,49.6
2018-09-27T09:20:14.807Z,48.7
2018-09-27T09:21:16.237Z,47.1
2018-09-27T09:22:17.644Z,45.9
2018-09-27T09:23:19.045Z,43.5
2018-09-27T09:24:20.608Z,41.0
2018-09-27T09:25:22.069Z,39.9
2018-09-27T09:26:23.462Z,40.0
2018-09-27T09:27:24.942Z,38.6
2018-09-27T09:28:26.389Z,37.0
2018-09-27T09:29:27.837Z,35.5
2018-09-27T09:30:29.207Z,36.0
2018-09-27T09:31:30.620Z,35.2
2018-09-27T09:32:32.144Z,33.7
2018-09-27T09:33:33.581Z,34.4
2018-09-27T09:34:34.955Z,35.1
2018-09-27T09:35:36.445Z,34.1
2018-09-27T09:36:37.806Z,33.3
2018-09-27T09:37:39.214Z,33.5
2018-09-27T09:38:40.687Z,32.0
2018-09-27T09:39:42.094Z,30.2
2018-09-27T09:40:43.500Z,28.9
2018-09-27T09:41:44.981Z,30.1
2018-09-27T09:42:46.482Z,30.3
2018-09-27T09:43:47.878Z,29.3
2018-09-27T09:44:49.299Z,28.5
2018-09-27T09:45:50.732Z,28.6
2018-09-27T09:46:52.229Z,26.8
2018-09-27T09:47:53.696Z,25.5
2018-09-27T09:48:55.132Z,26.9
2018-09-27T09:49:56.583Z,26.8
2018-09-27T09:50:57.980Z,26.2
2018-09-27T09:51:59.449Z,24.9
2018-09-27T09:53:00.860Z,23.6
2018-09-27T09:54:02.336Z,23.1
2018-09-27T09:55:03.777Z,23.7
2018-09-27T09:56:05.198Z,23.8
2018-09-27T09:57:06.608Z,22.9
2018-09-27T09:58:08.089Z,24.3
2018-09-27T09:59:09.564Z,24.2
2018-09-27T10:00:10.976Z,24.2
2018-09-27T10:01:12.483Z,24.6
2018-09-27T10:02:13.999Z,23.3
2018-09-27T10:03:15.449Z,23.1
2018-09-27T10:04:16.855Z,22.6
2018-09-27T10:05:18.269Z,21.6
2018-09-27T10:06:19.691Z,20.6
2018-09-27T10:07:21.137Z,20.6
2018-09-27T10:08:22.572Z,20.8
2018-09-27T10:09:24.671Z,19.7
2018-09-27T10:10:26.180Z,19.7
2018-09-27T10:11:27.610Z,19.6
2018-09-27T10:12:29.180Z,19.8
2018-09-27T10:13:30.699Z,20.2
2018-09-27T10:14:32.142Z,19.5
2018-09-27T10:15:33.552Z,18.9
2018-09-27T10:16:35.126Z,18.7
2018-09-27T10:17:36.625Z,17.5
2018-09-27T10:18:38.451Z,18.2
2018-09-27T10:19:39.877Z,18.2
2018-09-27T10:20:41.303Z,18.0
2018-09-27T10:21:42.832Z,19.0
2018-09-27T10:22:44.173Z,18.3
2018-09-27T10:23:45.620Z,18.5
2018-09-27T10:24:47.034Z,18.0
2018-09-27T10:25:48.479Z,16.0
2018-09-27T10:26:50.350Z,16.8
2018-09-27T10:27:51.763Z,15.2
2018-09-27T10:28:53.255Z,16.5
2018-09-27T10:29:55.455Z,16.8
2018-09-27T10:30:56.864Z,18.0
2018-09-27T10:31:58.437Z,17.0
2018-09-27T10:32:59.850Z,16.9
2018-09-27T10:34:01.381Z,16.4
2018-09-27T10:35:02.775Z,16.8
2018-09-27T10:36:04.188Z,14.9
2018-09-27T10:37:05.596Z,15.2
2018-09-27T10:38:07.006Z,16.0
2018-09-27T10:39:08.410Z,15.6
2018-09-27T10:40:09.826Z,17.7
2018-09-27T10:41:11.243Z,16.5
2018-09-27T10:42:12.659Z,17.5
2018-09-27T10:43:14.072Z,17.7
2018-09-27T10:44:15.482Z,17.0
2018-09-27T10:45:16.888Z,17.0
2018-09-27T10:46:18.300Z,17.1
2018-09-27T10:47:20.517Z,20.0
2018-09-27T10:48:21.823Z,20.5
2018-09-27T10:49:23.227Z,20.8
2018-09-27T10:50:24.635Z,21.4
2018-09-27T10:51:26.133Z,21.8
2018-09-27T10:52:27.456Z,21.7
2018-09-27T10:53:28.868Z,21.5
2018-09-27T10:54:30.272Z,21.6
2018-09-27T10:55:31.676Z,21.4
2018-09-27T10:56:33.086Z,22.0
2018-09-27T10:57:34.492Z,22.9
2018-09-27T10:58:35.901Z,22.1
2018-09-27T10:59:37.436Z,22.4
2018-09-27T11:00:39.386Z,23.0
2018-09-27T11:01:40.778Z,23.6
2018-09-27T11:02:42.182Z,23.8
2018-09-27T11:03:43.588Z,22.9
2018-09-27T11:04:44.993Z,22.2
2018-09-27T11:05:46.396Z,22.8
2018-09-27T11:06:47.806Z,21.8
2018-09-27T11:07:49.206Z,21.7
2018-09-27T11:08:50.614Z,23.8
2018-09-27T11:09:52.026Z,24.9
2018-09-27T11:10:53.474Z,24.7
2018-09-27T11:11:54.834Z,23.4
2018-09-27T11:12:56.243Z,23.5
2018-09-27T11:13:57.644Z,23.5
2018-09-27T11:14:59.048Z,23.2
2018-09-27T11:16:00.453Z,23.1
2018-09-27T11:17:01.857Z,24.1
2018-09-27T11:18:03.260Z,23.5
2018-09-27T11:19:04.663Z,23.4
2018-09-27T11:20:06.067Z,23.3
2018-09-27T11:21:07.479Z,23.5
2018-09-27T11:22:08.913Z,23.4
2018-09-27T11:23:10.623Z,24.4
2018-09-27T11:24:12.042Z,24.0
2018-09-27T11:25:13.446Z,24.6
2018-09-27T11:26:14.865Z,25.0
2018-09-27T11:27:16.282Z,25.4
2018-09-27T11:28:17.703Z,25.9
2018-09-27T11:29:19.103Z,25.1
2018-09-27T11:30:20.506Z,23.0
2018-09-27T11:31:21.909Z,24.8
2018-09-27T11:32:23.310Z,24.7
2018-09-27T11:33:24.720Z,24.6
2018-09-27T11:34:26.120Z,24.0
2018-09-27T11:35:27.525Z,25.0
2018-09-27T11:36:28.956Z,24.6
2018-09-27T11:37:30.330Z,23.3
2018-09-27T11:38:31.750Z,22.6
2018-09-27T11:39:33.140Z,22.0
2018-09-27T11:40:34.562Z,23.1
2018-09-27T11:41:35.967Z,24.6
2018-09-27T11:42:37.407Z,24.0
2018-09-27T11:43:38.772Z,22.2
2018-09-27T11:44:40.170Z,22.4
2018-09-27T11:45:41.606Z,23.1
2018-09-27T11:46:43.022Z,23.9
2018-09-27T11:47:44.428Z,24.6
2018-09-27T11:48:45.868Z,23.7
2018-09-27T11:49:47.292Z,23.8
2018-09-27T11:50:48.645Z,23.1
2018-09-27T11:51:50.048Z,23.1
2018-09-27T11:52:51.448Z,23.9
2018-09-27T11:53:52.852Z,23.1
2018-09-27T11:54:54.307Z,24.4
2018-09-27T11:55:55.773Z,24.1
2018-09-27T11:56:57.144Z,23.4
2018-09-27T11:57:58.546Z,24.4
2018-09-27T11:58:59.959Z,25.0
2018-09-27T12:00:01.358Z,24.2
2018-09-27T12:01:02.759Z,25.0
2018-09-27T12:02:04.169Z,25.0
2018-09-27T12:03:05.577Z,24.7
2018-09-27T12:04:06.984Z,24.9
2018-09-27T12:05:08.384Z,24.7
2018-09-27T12:06:09.821Z,26.3
2018-09-27T12:07:11.202Z,24.7
2018-09-27T12:08:12.617Z,25.9
2018-09-27T12:09:14.018Z,26.4
2018-09-27T12:10:15.424Z,27.1
2018-09-27T12:11:16.831Z,27.1
2018-09-27T12:12:18.230Z,28.8
2018-09-27T12:13:19.641Z,26.2
2018-09-27T12:14:21.037Z,26.2
2018-09-27T12:15:22.438Z,27.1
2018-09-27T12:16:23.841Z,26.3
2018-09-27T12:17:25.326Z,27.9
2018-09-27T12:18:26.675Z,28.0
2018-09-27T12:19:28.082Z,27.0
2018-09-27T12:20:29.478Z,27.8
2018-09-27T12:21:30.879Z,27.9
2018-09-27T12:22:32.282Z,28.3
2018-09-27T12:23:33.685Z,28.6
2018-09-27T12:24:35.089Z,28.2
2018-09-27T12:25:36.526Z,26.5
2018-09-27T12:26:37.898Z,27.1
2018-09-27T12:27:39.300Z,26.4
2018-09-27T12:28:40.774Z,26.8
2018-09-27T12:29:42.118Z,26.2
2018-09-27T12:30:43.515Z,26.4
2018-09-27T12:31:44.918Z,26.4
2018-09-27T12:32:46.359Z,27.4
2018-09-27T12:33:47.781Z,26.8
2018-09-27T12:34:49.181Z,29.0
2018-09-27T12:35:50.584Z,28.9
2018-09-27T12:36:51.993Z,27.0
2018-09-27T12:37:53.397Z,26.5
2018-09-27T12:38:54.820Z,26.1
2018-09-27T12:39:56.236Z,27.3
2018-09-27T12:40:57.638Z,25.9
2018-09-27T12:41:59.217Z,25.8
2018-09-27T12:43:00.521Z,26.7
2018-09-27T12:44:01.847Z,27.9
2018-09-27T12:45:03.288Z,27.3
2018-09-27T12:46:04.705Z,28.2
2018-09-27T12:47:06.070Z,28.5
2018-09-27T12:48:07.542Z,28.3
2018-09-27T12:49:08.872Z,28.5
2018-09-27T12:50:10.284Z,26.3
2018-09-27T12:51:11.797Z,26.4
2018-09-27T12:52:13.292Z,27.2
2018-09-27T12:53:14.555Z,26.3
2018-09-27T12:54:15.895Z,25.8
2018-09-27T12:55:17.299Z,26.4
2018-09-27T12:56:18.715Z,27.2
2018-09-27T12:57:20.117Z,27.6
2018-09-27T12:58:21.518Z,25.9
2018-09-27T12:59:22.921Z,27.0
2018-09-27T13:00:24.322Z,28.1
2018-09-27T13:01:25.783Z,28.5
2018-09-27T13:02:27.244Z,28.0
2018-09-27T13:03:28.577Z,27.5
2018-09-27T13:04:29.974Z,26.7
2018-09-27T13:05:31.396Z,26.3
2018-09-27T13:06:32.794Z,28.1
2018-09-27T13:07:34.199Z,28.8
2018-09-27T13:08:35.683Z,28.3
2018-09-27T13:09:37.105Z,28.6
2018-09-27T13:10:38.456Z,28.2
2018-09-27T13:11:40.769Z,28.6
2018-09-27T13:12:41.306Z,27.8
2018-09-27T13:13:42.671Z,28.2
2018-09-27T13:14:44.140Z,27.0
2018-09-27T13:15:45.487Z,26.5
2018-09-27T13:16:46.889Z,26.6
2018-09-27T13:17:48.290Z,27.0
2018-09-27T13:18:49.691Z,27.3
2018-09-27T13:19:51.101Z,28.4
2018-09-27T13:20:52.536Z,26.6
2018-09-27T13:21:54.061Z,26.0
2018-09-27T13:22:55.473Z,25.7
2018-09-27T13:23:56.871Z,26.5
2018-09-27T13:24:58.286Z,26.6
2018-09-27T13:25:59.673Z,25.4
2018-09-27T13:27:01.102Z,25.8
2018-09-27T13:28:02.478Z,27.6
2018-09-27T13:29:03.887Z,26.8
2018-09-27T13:30:05.318Z,26.2
2018-09-27T13:31:06.758Z,25.5
2018-09-27T13:32:08.156Z,26.1
2018-09-27T13:33:09.564Z,27.2
2018-09-27T13:34:10.997Z,28.1
2018-09-27T13:35:12.257Z,28.7
2018-09-27T13:36:13.659Z,27.5
2018-09-27T13:37:15.096Z,27.4